Time;durP1;ratioP1;P1;durP2;ratioP2;P2;SDS_P1;SDS_P2;PMS_P1;PMS_P2;Temp;Humidity;BMP_temperature;BMP_pressure;BME280_temperature;BME280_humidity;BME280_pressure;Samples;Min_cycle;Max_cycle;Signal;HPM_P1;HPM_P2
2022/09/28 00:01:07;;;;;;;10.40;9.60;;;7.90;99.90;;;;;;5094767;28;20458;-69
2022/09/28 00:03:34;;;;;;;9.53;8.97;;;8.00;99.90;;;;;;5096875;28;20554;-68
2022/09/28 00:06:03;;;;;;;11.33;10.20;;;8.00;99.90;;;;;;5094165;28;20462;-68
2022/09/28 00:08:30;;;;;;;10.13;9.43;;;8.00;99.90;;;;;;5095631;28;20994;-68
2022/09/28 00:10:57;;;;;;;12.60;11.37;;;8.00;99.90;;;;;;5091822;28;20919;-68
2022/09/28 00:13:28;;;;;;;48.93;13.30;;;8.00;99.90;;;;;;5097341;28;20919;-68
2022/09/28 00:16:03;;;;;;;12.47;11.17;;;8.10;99.90;;;;;;5098620;28;20461;-68
2022/09/28 00:18:30;;;;;;;13.00;12.00;;;8.10;99.90;;;;;;5096122;28;20834;-68
2022/09/28 00:21:01;;;;;;;12.30;11.40;;;8.10;99.90;;;;;;5093875;28;20457;-69
2022/09/28 00:23:28;;;;;;;11.87;10.97;;;8.10;99.90;;;;;;5096084;28;20955;-68
2022/09/28 00:25:55;;;;;;;13.20;12.23;;;8.10;99.90;;;;;;5093323;28;20449;-70
2022/09/28 00:28:24;;;;;;;12.83;12.03;;;8.10;99.90;;;;;;5092151;28;20878;-70
2022/09/28 00:30:56;;;;;;;13.67;12.83;;;8.00;99.90;;;;;;5092111;28;20460;-70
2022/09/28 00:33:23;;;;;;;13.50;12.60;;;8.10;99.90;;;;;;5094673;28;20977;-70
2022/09/28 00:35:56;;;;;;;12.60;11.70;;;8.00;99.90;;;;;;5096528;28;20876;-69
2022/09/28 00:38:26;;;;;;;13.00;12.20;;;8.00;99.90;;;;;;5093386;28;20460;-68
2022/09/28 00:40:54;;;;;;;11.50;10.80;;;8.00;99.90;;;;;;5093110;28;20833;-67
2022/09/28 00:43:22;;;;;;;12.67;11.90;;;8.10;99.90;;;;;;5092674;28;20961;-69
2022/09/28 00:45:55;;;;;;;13.20;12.33;;;8.10;99.90;;;;;;5094842;28;20472;-69
2022/09/28 00:48:23;;;;;;;12.90;11.73;;;8.00;99.90;;;;;;5091762;28;20457;-68
2022/09/28 00:50:51;;;;;;;12.73;11.73;;;8.10;99.90;;;;;;5092599;28;20460;-68
2022/09/28 00:53:23;;;;;;;11.73;10.93;;;8.10;99.90;;;;;;5096506;28;20483;-68
2022/09/28 00:55:54;;;;;;;13.00;12.10;;;8.10;99.90;;;;;;5098209;28;20789;-67
2022/09/28 00:58:26;;;;;;;13.37;12.50;;;8.10;99.90;;;;;;5093941;28;20458;-68
2022/09/28 01:00:57;;;;;;;13.97;12.50;;;8.00;99.90;;;;;;5091126;28;20475;-68
2022/09/28 01:03:25;;;;;;;14.13;13.23;;;8.00;99.90;;;;;;5095965;28;20495;-68
2022/09/28 01:05:54;;;;;;;14.63;13.63;;;8.00;99.90;;;;;;5097854;28;20974;-68
2022/09/28 01:08:24;;;;;;;14.87;13.77;;;8.00;99.90;;;;;;5099056;28;20474;-67
2022/09/28 01:10:51;;;;;;;14.57;13.43;;;7.90;99.90;;;;;;5097717;28;20502;-68
2022/09/28 01:13:19;;;;;;;14.93;13.77;;;7.90;99.90;;;;;;5101622;28;20485;-68
2022/09/28 01:16:06;;;;;;;15.07;14.00;;;7.90;99.90;;;;;;5093331;28;20461;-68
2022/09/28 01:18:40;;;;;;;14.57;13.50;;;7.90;99.90;;;;;;5094358;28;20458;-68
2022/09/28 01:21:14;;;;;;;14.93;13.53;;;8.00;99.90;;;;;;5095636;28;20465;-68
2022/09/28 01:24:03;;;;;;;16.20;14.93;;;7.90;99.90;;;;;;5096740;28;20487;-68
2022/09/28 01:26:55;;;;;;;14.83;13.87;;;7.80;99.90;;;;;;5091013;28;20523;-68
2022/09/28 01:29:33;;;;;;;14.87;13.77;;;7.70;99.90;;;;;;5088619;28;20485;-68
2022/09/28 01:32:12;;;;;;;15.50;14.40;;;7.70;99.90;;;;;;5096148;28;20458;-68
2022/09/28 01:34:45;;;;;;;19.00;13.23;;;7.80;99.90;;;;;;5100088;28;20827;-68
2022/09/28 01:37:16;;;;;;;15.60;13.73;;;7.80;99.90;;;;;;5098189;28;20542;-67
2022/09/28 01:39:47;;;;;;;14.07;12.87;;;7.80;99.90;;;;;;5095048;28;20931;-68
2022/09/28 01:42:19;;;;;;;14.10;13.13;;;7.80;99.90;;;;;;5094949;28;20844;-68
2022/09/28 01:44:51;;;;;;;13.50;12.40;;;7.80;99.90;;;;;;5097326;28;20456;-68
2022/09/28 01:47:21;;;;;;;13.50;12.60;;;7.80;99.90;;;;;;5095676;28;20458;-68
2022/09/28 01:49:53;;;;;;;15.03;13.73;;;7.90;99.90;;;;;;5099655;28;20468;-68
2022/09/28 01:52:26;;;;;;;16.37;15.00;;;7.90;99.90;;;;;;5100519;28;20480;-67
2022/09/28 01:54:58;;;;;;;14.87;13.63;;;7.90;99.90;;;;;;5097987;28;20462;-68
2022/09/28 01:57:33;;;;;;;16.53;15.03;;;7.90;99.90;;;;;;5095646;28;20489;-68
2022/09/28 02:00:05;;;;;;;15.97;14.77;;;7.90;99.90;;;;;;5096655;28;20463;-69
2022/09/28 02:02:36;;;;;;;15.80;14.30;;;7.90;99.90;;;;;;5098291;28;20477;-69
2022/09/28 02:05:08;;;;;;;17.20;15.67;;;7.90;99.90;;;;;;5098058;28;20457;-68
2022/09/28 02:07:41;;;;;;;15.40;14.23;;;8.00;99.90;;;;;;5100179;28;20519;-68
2022/09/28 02:10:12;;;;;;;19.53;15.90;;;8.10;99.90;;;;;;5092753;28;21011;-68
2022/09/28 02:12:44;;;;;;;17.17;15.47;;;8.10;99.90;;;;;;5096653;28;20830;-68
2022/09/28 02:15:18;;;;;;;18.00;16.40;;;8.20;99.90;;;;;;5096679;28;20456;-70
2022/09/28 02:17:46;;;;;;;18.53;16.70;;;8.30;99.90;;;;;;5093003;28;20549;-68
2022/09/28 02:20:13;;;;;;;18.53;16.50;;;8.30;99.90;;;;;;5097465;28;20601;-70
2022/09/28 02:22:45;;;;;;;18.00;16.60;;;8.30;99.90;;;;;;5096695;28;21023;-70
2022/09/28 02:25:21;;;;;;;18.73;16.60;;;8.30;99.90;;;;;;5099472;28;20467;-68
2022/09/28 02:27:56;;;;;;;19.20;16.90;;;8.20;99.90;;;;;;5098377;28;20479;-70
2022/09/28 02:30:23;;;;;;;18.83;17.00;;;8.30;99.90;;;;;;5096713;28;20460;-71
2022/09/28 02:32:52;;;;;;;18.40;16.70;;;8.30;99.90;;;;;;5097098;28;20828;-70
2022/09/28 02:35:20;;;;;;;18.30;16.40;;;8.20;99.90;;;;;;5097527;28;20504;-70
2022/09/28 02:37:47;;;;;;;18.00;16.50;;;8.20;99.90;;;;;;5097176;28;20472;-67
2022/09/28 02:40:14;;;;;;;17.43;15.83;;;8.30;99.90;;;;;;5096423;28;20841;-68
2022/09/28 02:42:50;;;;;;;18.10;16.37;;;8.30;99.90;;;;;;5105026;28;20474;-68
2022/09/28 02:45:28;;;;;;;21.20;18.10;;;8.40;99.90;;;;;;5097642;28;20466;-68
2022/09/28 02:48:05;;;;;;;18.93;17.33;;;8.40;99.90;;;;;;5098858;28;20462;-68
2022/09/28 02:50:41;;;;;;;22.97;18.00;;;8.40;99.90;;;;;;5095430;28;20469;-68
2022/09/28 02:53:34;;;;;;;21.30;19.20;;;8.40;99.90;;;;;;5095802;28;20461;-68
2022/09/28 02:56:27;;;;;;;21.07;19.07;;;8.50;99.90;;;;;;5091807;28;20501;-68
2022/09/28 02:59:00;;;;;;;22.87;19.63;;;8.50;99.90;;;;;;5054706;28;20476;-68
2022/09/28 03:01:34;;;;;;;23.43;20.57;;;8.50;99.90;;;;;;5100501;28;20516;-69
2022/09/28 03:04:09;;;;;;;27.70;20.77;;;8.60;99.90;;;;;;5094521;28;20506;-68
2022/09/28 03:06:40;;;;;;;21.77;19.67;;;8.60;99.90;;;;;;5094796;28;20468;-70
2022/09/28 03:09:14;;;;;;;24.63;21.97;;;8.60;99.90;;;;;;5095894;28;20491;-70
2022/09/28 03:11:45;;;;;;;22.87;20.47;;;8.70;99.90;;;;;;5096202;28;20465;-68
2022/09/28 03:14:13;;;;;;;22.40;20.33;;;8.70;99.90;;;;;;5096815;28;21003;-69
2022/09/28 03:16:44;;;;;;;25.87;19.97;;;8.70;99.90;;;;;;5094873;28;20468;-69
2022/09/28 03:19:12;;;;;;;22.43;19.30;;;8.70;99.90;;;;;;5097313;28;20472;-68
2022/09/28 03:21:40;;;;;;;25.00;19.40;;;8.70;99.90;;;;;;5095713;28;20518;-68
2022/09/28 03:24:09;;;;;;;23.63;21.33;;;8.80;99.90;;;;;;5092865;28;20497;-68
2022/09/28 03:26:36;;;;;;;24.20;21.80;;;8.70;99.90;;;;;;5093723;28;20454;-68
2022/09/28 03:29:03;;;;;;;25.47;22.97;;;8.70;99.90;;;;;;5096216;28;21003;-69
2022/09/28 03:31:31;;;;;;;26.37;21.40;;;8.70;99.90;;;;;;5092448;28;20468;-69
2022/09/28 03:33:59;;;;;;;23.77;21.27;;;8.70;99.90;;;;;;5103174;28;20510;-70
2022/09/28 03:36:26;;;;;;;24.03;21.63;;;8.70;99.90;;;;;;5101390;28;20476;-70
2022/09/28 03:38:53;;;;;;;22.67;20.47;;;8.70;99.90;;;;;;5097285;28;20457;-69
2022/09/28 03:41:21;;;;;;;23.03;20.83;;;8.70;99.90;;;;;;5093974;28;20971;-68
2022/09/28 03:43:48;;;;;;;22.47;20.43;;;8.80;99.90;;;;;;5097624;28;20578;-70
2022/09/28 03:46:15;;;;;;;22.07;20.17;;;8.70;99.90;;;;;;5093195;28;20466;-68
2022/09/28 03:48:42;;;;;;;23.80;21.10;;;8.70;99.90;;;;;;5097462;28;20454;-68
2022/09/28 03:51:12;;;;;;;26.30;21.00;;;8.70;99.90;;;;;;5093353;28;20960;-68
2022/09/28 03:53:40;;;;;;;22.60;20.27;;;8.60;99.90;;;;;;5094095;28;20461;-68
2022/09/28 03:56:11;;;;;;;22.27;20.10;;;8.50;99.90;;;;;;5094076;28;21001;-68
2022/09/28 03:58:37;;;;;;;21.23;19.27;;;8.40;99.90;;;;;;5099048;28;20884;-68
2022/09/28 04:01:06;;;;;;;21.77;19.57;;;8.40;99.90;;;;;;5090918;28;20562;-68
2022/09/28 04:03:33;;;;;;;22.13;19.83;;;8.40;99.90;;;;;;5099616;28;20493;-68
2022/09/28 04:06:00;;;;;;;21.23;19.17;;;8.30;99.90;;;;;;5092364;28;20475;-68
2022/09/28 04:08:28;;;;;;;21.10;19.30;;;8.30;99.90;;;;;;5095048;28;20868;-68
2022/09/28 04:10:57;;;;;;;21.97;19.87;;;8.30;99.90;;;;;;5094996;28;20468;-68
2022/09/28 04:13:25;;;;;;;19.93;18.13;;;8.30;99.90;;;;;;5094757;28;20484;-68
2022/09/28 04:15:56;;;;;;;22.37;19.73;;;8.30;99.90;;;;;;5089610;28;20467;-68
2022/09/28 04:18:23;;;;;;;23.07;20.80;;;8.20;99.90;;;;;;5098119;28;20974;-68
2022/09/28 04:20:58;;;;;;;21.53;19.47;;;8.20;99.90;;;;;;5091879;28;20456;-68
2022/09/28 04:23:25;;;;;;;22.27;19.17;;;8.20;99.90;;;;;;5096346;28;20500;-68
2022/09/28 04:25:53;;;;;;;20.60;18.90;;;8.00;99.90;;;;;;5094952;28;20519;-69
2022/09/28 04:31:09;;;;;;;20.10;18.40;;;8.00;99.90;;;;;;5097193;28;20463;-69
2022/09/28 04:33:36;;;;;;;19.70;17.70;;;8.00;99.90;;;;;;5093219;28;20482;-69
2022/09/28 04:36:03;;;;;;;20.60;18.60;;;8.00;99.90;;;;;;5091803;28;20545;-70
2022/09/28 04:38:30;;;;;;;20.47;18.50;;;8.00;99.90;;;;;;5097803;28;20451;-70
2022/09/28 04:40:58;;;;;;;19.73;17.77;;;8.00;99.90;;;;;;5095373;28;20968;-68
2022/09/28 04:43:25;;;;;;;21.37;19.47;;;8.00;99.90;;;;;;5094379;28;20489;-68
2022/09/28 04:45:52;;;;;;;22.53;17.63;;;8.00;99.90;;;;;;5090919;28;20458;-68
2022/09/28 04:48:18;;;;;;;20.93;19.23;;;8.00;99.90;;;;;;5092823;28;20465;-68
2022/09/28 04:50:53;;;;;;;20.17;18.27;;;8.00;99.90;;;;;;5091780;28;20466;-68
2022/09/28 04:53:20;;;;;;;19.40;17.60;;;7.90;99.90;;;;;;5100331;28;20476;-68
2022/09/28 04:55:58;;;;;;;19.70;17.73;;;7.80;99.90;;;;;;5094832;28;20514;-68
2022/09/28 04:58:26;;;;;;;19.87;17.87;;;7.80;99.90;;;;;;5094110;28;20956;-68
2022/09/28 05:00:57;;;;;;;20.57;18.67;;;7.70;99.90;;;;;;5096469;28;20967;-68
2022/09/28 05:03:25;;;;;;;20.77;18.47;;;7.80;99.90;;;;;;5099846;28;20501;-70
2022/09/28 05:05:51;;;;;;;18.17;16.57;;;7.80;99.90;;;;;;5093359;28;20964;-70
2022/09/28 05:08:19;;;;;;;20.33;18.63;;;7.80;99.90;;;;;;5107413;28;20471;-68
2022/09/28 05:10:46;;;;;;;19.13;17.13;;;7.90;99.90;;;;;;5095065;28;20458;-67
2022/09/28 05:13:16;;;;;;;20.70;18.70;;;7.90;99.90;;;;;;5096150;28;20568;-69
2022/09/28 05:15:42;;;;;;;20.03;18.43;;;8.00;99.90;;;;;;5098105;28;20488;-68
2022/09/28 05:18:09;;;;;;;18.97;17.20;;;8.00;99.90;;;;;;5099377;28;20956;-69
2022/09/28 05:20:40;;;;;;;17.93;16.20;;;8.10;99.90;;;;;;5098129;28;20460;-68
2022/09/28 05:23:10;;;;;;;20.20;18.50;;;8.10;99.90;;;;;;5093189;28;20569;-69
2022/09/28 05:25:36;;;;;;;19.40;17.50;;;8.10;99.90;;;;;;5097435;28;20560;-68
2022/09/28 05:28:04;;;;;;;19.93;17.50;;;8.10;99.90;;;;;;5096551;28;20492;-68
2022/09/28 05:30:32;;;;;;;19.73;18.03;;;8.20;99.90;;;;;;5094704;28;20486;-68
2022/09/28 05:33:00;;;;;;;23.23;19.60;;;8.10;99.90;;;;;;5103219;28;20457;-68
2022/09/28 05:35:28;;;;;;;23.57;19.30;;;8.20;99.90;;;;;;5096025;28;20564;-69
2022/09/28 05:37:55;;;;;;;22.70;20.33;;;8.10;99.90;;;;;;5095990;28;20471;-68
2022/09/28 05:40:23;;;;;;;28.30;20.03;;;8.10;99.90;;;;;;5094620;28;20948;-70
2022/09/28 05:42:50;;;;;;;20.03;18.03;;;8.00;99.90;;;;;;5096278;28;20882;-70
2022/09/28 05:45:17;;;;;;;20.73;18.20;;;8.10;99.90;;;;;;5091146;28;20911;-70
2022/09/28 05:47:46;;;;;;;21.17;19.17;;;8.10;99.90;;;;;;5097414;28;20461;-67
2022/09/28 05:50:14;;;;;;;19.87;18.07;;;8.10;99.90;;;;;;5094301;28;20838;-69
2022/09/28 05:52:43;;;;;;;23.43;18.10;;;8.10;99.90;;;;;;5093626;28;21229;-70
2022/09/28 05:55:10;;;;;;;20.43;18.23;;;8.10;99.90;;;;;;5096341;28;20459;-67
2022/09/28 05:57:37;;;;;;;18.97;17.20;;;8.10;99.90;;;;;;5094758;28;20459;-69
2022/09/28 06:00:06;;;;;;;20.00;17.87;;;8.10;99.90;;;;;;5090170;28;20878;-69
2022/09/28 06:02:33;;;;;;;26.57;18.50;;;8.10;99.90;;;;;;5091527;28;20458;-68
2022/09/28 06:05:02;;;;;;;18.13;16.23;;;8.10;99.90;;;;;;5091043;28;20492;-68
2022/09/28 06:07:29;;;;;;;18.90;16.73;;;8.10;99.90;;;;;;5086166;28;20542;-69
2022/09/28 06:09:56;;;;;;;17.90;16.07;;;8.10;99.90;;;;;;5094520;28;20535;-68
2022/09/28 06:12:24;;;;;;;18.40;16.00;;;8.10;99.90;;;;;;5090530;28;20574;-68
2022/09/28 06:14:51;;;;;;;18.97;17.10;;;8.10;99.90;;;;;;5093038;28;20514;-69
2022/09/28 06:17:18;;;;;;;18.17;16.27;;;8.20;99.90;;;;;;5090255;28;20720;-68
2022/09/28 06:19:44;;;;;;;17.90;15.93;;;8.20;99.90;;;;;;5095933;28;20568;-68
2022/09/28 06:22:12;;;;;;;18.60;15.87;;;8.20;99.90;;;;;;5092551;28;20474;-68
2022/09/28 06:24:39;;;;;;;17.27;15.57;;;8.20;99.90;;;;;;5087956;28;20884;-68
2022/09/28 06:27:06;;;;;;;18.63;15.47;;;8.20;99.90;;;;;;5097009;28;20458;-68
2022/09/28 06:29:33;;;;;;;18.50;15.73;;;8.30;99.90;;;;;;5093377;28;20501;-68
2022/09/28 06:32:00;;;;;;;19.03;15.80;;;8.30;99.90;;;;;;5095243;28;20472;-68
2022/09/28 06:34:28;;;;;;;15.80;14.20;;;8.30;99.90;;;;;;5097817;28;20445;-68
2022/09/28 06:36:55;;;;;;;16.50;14.90;;;8.30;99.90;;;;;;5091043;28;21066;-68
2022/09/28 06:39:23;;;;;;;19.20;14.97;;;8.40;99.90;;;;;;5089877;28;20466;-68
2022/09/28 06:41:51;;;;;;;14.93;13.50;;;8.50;99.90;;;;;;5094459;28;20468;-68
2022/09/28 06:44:18;;;;;;;18.50;14.40;;;8.60;99.90;;;;;;5095506;28;20855;-70
2022/09/28 06:46:45;;;;;;;17.00;14.93;;;8.60;99.90;;;;;;5090141;28;20827;-71
2022/09/28 06:49:13;;;;;;;19.10;13.80;;;8.70;99.90;;;;;;5092912;28;20944;-68
2022/09/28 06:51:39;;;;;;;15.53;13.87;;;8.70;99.90;;;;;;5094859;28;20561;-68
2022/09/28 06:54:06;;;;;;;15.13;13.20;;;8.80;99.90;;;;;;5091143;28;20464;-68
2022/09/28 06:56:35;;;;;;;15.20;13.70;;;8.80;99.90;;;;;;5095584;28;20475;-67
2022/09/28 06:59:02;;;;;;;16.13;13.83;;;8.90;99.90;;;;;;5091149;28;20456;-69
2022/09/28 07:01:29;;;;;;;14.70;13.20;;;9.00;99.90;;;;;;5098319;28;20462;-68
2022/09/28 07:03:56;;;;;;;21.97;13.60;;;9.00;99.90;;;;;;5092586;28;20481;-68
2022/09/28 07:06:25;;;;;;;16.80;12.50;;;9.00;99.90;;;;;;5085209;28;20546;-68
2022/09/28 07:08:53;;;;;;;14.60;13.20;;;9.10;99.90;;;;;;5090003;28;20561;-68
2022/09/28 07:11:20;;;;;;;14.63;12.30;;;9.10;99.90;;;;;;5089978;28;20581;-69
2022/09/28 07:13:48;;;;;;;17.07;13.43;;;9.20;99.90;;;;;;5096642;28;20563;-70
2022/09/28 07:16:14;;;;;;;20.63;14.63;;;9.20;99.90;;;;;;5089760;28;20459;-68
2022/09/28 07:18:41;;;;;;;13.87;12.43;;;9.30;99.90;;;;;;5089904;28;20957;-67
2022/09/28 07:21:08;;;;;;;19.00;13.67;;;9.30;99.90;;;;;;5092600;28;20811;-69
2022/09/28 07:23:36;;;;;;;16.23;14.20;;;9.20;99.90;;;;;;5092242;28;20832;-67
2022/09/28 07:26:04;;;;;;;22.20;14.70;;;9.30;99.90;;;;;;5091522;28;20892;-69
2022/09/28 07:28:32;;;;;;;16.50;14.90;;;9.40;99.90;;;;;;5099676;28;20482;-69
2022/09/28 07:31:02;;;;;;;15.50;13.90;;;9.50;99.90;;;;;;5095040;28;21039;-69
2022/09/28 07:33:31;;;;;;;18.37;14.67;;;9.60;99.90;;;;;;5090254;28;20859;-68
2022/09/28 07:35:59;;;;;;;14.67;13.17;;;9.60;99.90;;;;;;5093013;28;20451;-69
2022/09/28 07:38:27;;;;;;;15.17;13.63;;;9.70;99.90;;;;;;5091285;28;20894;-68
2022/09/28 07:41:15;;;;;;;13.17;11.50;;;9.90;99.90;;;;;;5088809;28;20458;-69
2022/09/28 07:43:43;;;;;;;12.60;11.40;;;10.00;99.90;;;;;;5089145;28;20496;-67
2022/09/28 07:46:11;;;;;;;13.10;11.90;;;10.00;99.90;;;;;;5096002;28;20469;-67
2022/09/28 07:48:40;;;;;;;16.30;12.07;;;10.10;99.90;;;;;;5092142;28;21044;-69
2022/09/28 07:51:07;;;;;;;15.30;13.67;;;10.10;99.90;;;;;;5094034;28;20457;-68
2022/09/28 07:53:37;;;;;;;18.80;12.33;;;10.20;99.90;;;;;;5094605;28;20470;-71
2022/09/28 07:56:07;;;;;;;14.93;12.40;;;10.40;99.90;;;;;;5096271;28;20995;-68
2022/09/28 07:58:36;;;;;;;12.70;11.50;;;10.50;99.90;;;;;;5091384;28;20469;-69
2022/09/28 08:01:06;;;;;;;13.27;12.07;;;10.50;99.90;;;;;;5089006;28;20975;-68
2022/09/28 08:03:35;;;;;;;13.23;11.87;;;10.50;99.90;;;;;;5092831;28;20527;-68
2022/09/28 08:06:03;;;;;;;13.83;12.47;;;10.50;99.90;;;;;;5090792;28;20454;-68
2022/09/28 08:08:30;;;;;;;16.13;14.83;;;10.60;99.90;;;;;;5090474;28;20454;-69
2022/09/28 08:10:58;;;;;;;13.53;12.33;;;10.60;99.90;;;;;;5087956;28;20462;-68
2022/09/28 08:13:25;;;;;;;13.60;12.40;;;10.50;99.90;;;;;;5092002;28;20498;-67
2022/09/28 08:15:53;;;;;;;12.20;11.10;;;10.60;99.90;;;;;;5094392;28;20462;-68
2022/09/28 08:18:22;;;;;;;16.10;12.87;;;10.70;99.90;;;;;;5093866;28;20482;-67
2022/09/28 08:23:37;;;;;;;14.90;13.80;;;10.80;99.90;;;;;;5092877;28;20456;-67
2022/09/28 08:26:04;;;;;;;16.07;14.30;;;10.90;99.90;;;;;;5094336;28;20469;-69
2022/09/28 08:28:31;;;;;;;15.50;14.20;;;11.10;99.90;;;;;;5088004;28;20486;-69
2022/09/28 08:31:01;;;;;;;15.87;14.40;;;11.40;99.90;;;;;;5094237;28;20560;-69
2022/09/28 08:33:28;;;;;;;14.97;13.70;;;11.60;99.90;;;;;;5088894;28;20828;-68
2022/09/28 08:35:58;;;;;;;15.47;14.13;;;11.80;99.90;;;;;;5088473;28;20467;-69
2022/09/28 08:38:25;;;;;;;15.57;14.40;;;11.70;99.90;;;;;;5090245;28;20967;-69
2022/09/28 08:41:02;;;;;;;15.60;14.53;;;11.70;99.90;;;;;;5092433;28;20470;-69
2022/09/28 08:43:43;;;;;;;15.87;14.57;;;11.80;99.90;;;;;;5087876;28;20834;-69
2022/09/28 08:46:13;;;;;;;16.13;14.80;;;11.80;99.90;;;;;;5092334;28;20942;-69
2022/09/28 08:48:52;;;;;;;16.60;15.40;;;11.80;99.90;;;;;;5090648;28;20466;-69
2022/09/28 08:51:25;;;;;;;15.83;14.70;;;11.80;99.90;;;;;;5090238;28;20545;-68
2022/09/28 08:54:00;;;;;;;16.00;14.80;;;11.70;99.90;;;;;;5088797;28;20466;-68
2022/09/28 08:56:35;;;;;;;15.80;14.67;;;11.60;99.90;;;;;;5090835;28;20460;-68
2022/09/28 08:59:09;;;;;;;15.87;14.67;;;11.40;99.90;;;;;;5089596;28;20833;-68
2022/09/28 09:01:41;;;;;;;15.63;14.43;;;11.30;99.90;;;;;;5086020;28;20484;-68
2022/09/28 09:04:09;;;;;;;14.73;13.73;;;11.20;99.90;;;;;;5090788;28;20871;-69
2022/09/28 09:06:53;;;;;;;14.27;13.37;;;11.10;99.90;;;;;;5089588;28;20976;-70
2022/09/28 09:09:31;;;;;;;14.33;13.43;;;11.10;99.90;;;;;;5087331;28;20453;-68
2022/09/28 09:12:06;;;;;;;14.07;13.07;;;11.30;99.90;;;;;;5090108;28;20461;-70
2022/09/28 09:15:03;;;;;;;15.10;13.77;;;11.40;99.90;;;;;;5088662;28;20489;-68
2022/09/28 09:17:41;;;;;;;14.47;13.67;;;11.40;99.90;;;;;;5086863;28;20921;-68
2022/09/28 09:20:17;;;;;;;14.17;13.30;;;11.60;99.90;;;;;;5089209;28;20493;-69
2022/09/28 09:22:56;;;;;;;16.80;15.30;;;11.70;99.90;;;;;;5088044;28;20461;-68
2022/09/28 09:25:27;;;;;;;15.13;14.30;;;11.90;99.90;;;;;;5087652;28;20998;-68
2022/09/28 09:28:17;;;;;;;17.23;14.70;;;12.20;99.90;;;;;;5092471;28;20991;-70
2022/09/28 09:30:52;;;;;;;16.47;15.00;;;12.40;99.90;;;;;;5092701;28;20453;-68
2022/09/28 09:33:41;;;;;;;15.90;14.97;;;12.70;99.90;;;;;;5085588;28;20461;-68
2022/09/28 09:36:19;;;;;;;14.80;14.00;;;12.80;99.90;;;;;;5088837;28;20470;-67
2022/09/28 09:38:59;;;;;;;16.17;15.27;;;13.00;99.90;;;;;;5094974;28;20454;-67
2022/09/28 09:41:39;;;;;;;15.97;15.07;;;13.90;99.90;;;;;;5087133;28;20461;-68
2022/09/28 09:44:25;;;;;;;16.90;15.80;;;14.60;99.90;;;;;;5092806;28;20453;-68
2022/09/28 09:46:56;;;;;;;17.30;16.30;;;15.00;99.90;;;;;;5090241;28;20454;-68
2022/09/28 09:49:27;;;;;;;17.07;16.10;;;14.70;99.90;;;;;;5092238;28;20461;-67
2022/09/28 09:51:59;;;;;;;16.70;15.60;;;14.40;99.90;;;;;;5091557;28;20469;-68
2022/09/28 09:54:35;;;;;;;17.03;16.00;;;14.60;99.90;;;;;;5094616;28;20627;-68
2022/09/28 09:57:05;;;;;;;16.87;15.97;;;15.40;99.90;;;;;;5093968;28;20453;-68
2022/09/28 09:59:36;;;;;;;18.00;16.57;;;15.50;99.90;;;;;;5092191;28;20466;-68
2022/09/28 10:02:14;;;;;;;16.43;15.50;;;15.40;99.90;;;;;;5090164;28;20472;-68
2022/09/28 10:04:45;;;;;;;16.60;15.50;;;14.90;99.90;;;;;;5093157;28;20717;-68
2022/09/28 10:07:21;;;;;;;16.47;15.57;;;14.80;99.90;;;;;;5093917;28;20461;-68
2022/09/28 10:09:51;;;;;;;16.73;15.80;;;14.70;99.90;;;;;;5093706;28;20463;-68
2022/09/28 10:12:21;;;;;;;16.77;15.73;;;14.60;99.90;;;;;;5096424;28;20524;-69
2022/09/28 10:14:48;;;;;;;16.33;15.43;;;14.60;99.90;;;;;;5095268;28;21035;-68
2022/09/28 10:17:18;;;;;;;17.37;15.70;;;14.50;99.90;;;;;;5092076;28;20469;-68
2022/09/28 10:19:46;;;;;;;16.70;15.60;;;14.60;99.90;;;;;;5092236;28;20919;-68
2022/09/28 10:22:17;;;;;;;17.17;16.17;;;15.00;99.90;;;;;;5093314;28;20484;-68
2022/09/28 10:24:46;;;;;;;16.73;15.80;;;14.90;99.90;;;;;;5090310;28;20474;-68
2022/09/28 10:27:18;;;;;;;15.63;14.83;;;15.00;99.90;;;;;;5091983;28;20454;-68
2022/09/28 10:29:51;;;;;;;16.73;15.73;;;15.00;99.90;;;;;;5093468;28;20553;-68
2022/09/28 10:32:20;;;;;;;15.63;14.83;;;15.60;99.90;;;;;;5090885;28;20840;-68
2022/09/28 10:34:48;;;;;;;16.37;14.70;;;16.00;99.90;;;;;;5091564;28;20454;-68
2022/09/28 10:37:17;;;;;;;16.00;15.00;;;16.50;99.90;;;;;;5094685;28;20544;-69
2022/09/28 10:39:49;;;;;;;17.00;16.00;;;16.40;99.90;;;;;;5097062;28;20851;-68
2022/09/28 10:42:22;;;;;;;16.33;15.27;;;16.00;99.90;;;;;;5092553;28;20498;-69
2022/09/28 10:44:53;;;;;;;16.57;15.50;;;15.50;99.90;;;;;;5097334;28;20488;-68
2022/09/28 10:47:23;;;;;;;15.63;14.77;;;15.30;99.90;;;;;;5089892;28;20963;-68
2022/09/28 10:49:52;;;;;;;16.80;15.73;;;15.10;99.90;;;;;;5096420;28;20465;-67
2022/09/28 10:52:34;;;;;;;16.40;15.50;;;15.00;99.90;;;;;;5095088;28;20812;-69
2022/09/28 10:55:01;;;;;;;16.67;15.77;;;15.00;99.90;;;;;;5096726;28;20512;-68
2022/09/28 10:57:33;;;;;;;17.33;16.10;;;14.80;99.90;;;;;;5093111;28;21106;-70
2022/09/28 11:00:01;;;;;;;17.63;16.47;;;14.30;99.90;;;;;;5091879;28;20446;-69
2022/09/28 11:02:32;;;;;;;16.43;15.53;;;14.40;99.90;;;;;;5094755;28;20461;-68
2022/09/28 11:05:00;;;;;;;16.10;15.10;;;14.60;99.90;;;;;;5091536;28;20487;-68
2022/09/28 11:07:30;;;;;;;16.07;15.13;;;14.70;99.90;;;;;;5094105;28;20899;-68
2022/09/28 11:09:59;;;;;;;16.30;15.23;;;15.20;99.90;;;;;;5092512;28;20573;-69
2022/09/28 11:12:30;;;;;;;16.50;15.50;;;16.00;99.90;;;;;;5095781;28;20476;-68
2022/09/28 11:15:00;;;;;;;16.13;15.33;;;16.10;99.90;;;;;;5095815;28;20477;-69
2022/09/28 11:17:29;;;;;;;16.40;15.50;;;16.10;99.90;;;;;;5092261;28;20449;-68
2022/09/28 11:19:59;;;;;;;15.80;15.10;;;15.60;99.90;;;;;;5089697;28;20959;-69
2022/09/28 11:22:31;;;;;;;16.60;15.60;;;15.50;99.90;;;;;;5092570;28;20462;-68
2022/09/28 11:25:23;;;;;;;16.60;15.60;;;15.80;99.90;;;;;;5102334;28;20519;-69
2022/09/28 11:28:00;;;;;;;16.00;15.00;;;15.50;99.90;;;;;;5090364;28;20547;-69
2022/09/28 11:30:30;;;;;;;16.37;15.37;;;15.30;99.90;;;;;;5095701;28;20454;-68
2022/09/28 11:33:02;;;;;;;16.20;15.30;;;15.20;99.90;;;;;;5095359;28;20952;-69
2022/09/28 11:35:41;;;;;;;16.20;15.30;;;15.20;99.90;;;;;;5096889;28;20449;-68
2022/09/28 11:38:22;;;;;;;16.10;15.00;;;15.20;99.90;;;;;;5092535;28;20466;-68
2022/09/28 11:41:00;;;;;;;16.27;15.37;;;15.30;99.90;;;;;;5096901;28;20468;-69
2022/09/28 11:43:55;;;;;;;16.10;15.00;;;15.60;99.90;;;;;;5092243;28;20461;-69
2022/09/28 11:46:31;;;;;;;15.63;14.80;;;15.70;99.90;;;;;;5085780;28;20579;-70
2022/09/28 11:49:02;;;;;;;15.20;14.40;;;15.60;99.90;;;;;;5095190;28;20461;-70
2022/09/28 11:51:34;;;;;;;16.30;15.40;;;15.80;99.90;;;;;;5093042;28;20461;-69
2022/09/28 11:54:13;;;;;;;15.90;14.80;;;16.30;99.90;;;;;;5089570;28;20453;-68
2022/09/28 11:56:42;;;;;;;15.70;15.00;;;16.50;99.90;;;;;;5090377;28;20465;-69
2022/09/28 11:59:15;;;;;;;15.97;15.17;;;16.40;99.90;;;;;;5091610;28;20469;-71
2022/09/28 12:01:47;;;;;;;15.57;14.73;;;16.20;99.90;;;;;;5085973;28;20462;-69
2022/09/28 12:04:18;;;;;;;16.60;15.30;;;16.00;99.90;;;;;;5088357;28;20853;-69
2022/09/28 12:06:49;;;;;;;16.10;15.30;;;16.00;99.90;;;;;;5093726;28;21010;-72
2022/09/28 12:09:22;;;;;;;15.47;14.67;;;16.10;99.90;;;;;;5091200;28;20467;-69
2022/09/28 12:11:55;;;;;;;15.50;14.70;;;15.80;99.90;;;;;;5095125;28;20465;-71
2022/09/28 12:14:28;;;;;;;15.73;14.83;;;15.80;99.90;;;;;;5091527;28;20486;-69
2022/09/28 12:17:01;;;;;;;16.30;15.10;;;15.60;99.90;;;;;;5093338;28;20563;-69
2022/09/28 12:19:32;;;;;;;15.53;14.83;;;15.70;99.90;;;;;;5092527;28;20462;-69
2022/09/28 12:22:04;;;;;;;14.90;14.20;;;15.50;99.90;;;;;;5090042;28;20979;-69
2022/09/28 12:24:34;;;;;;;15.10;14.30;;;15.80;99.90;;;;;;5092574;28;20968;-69
2022/09/28 12:27:06;;;;;;;16.00;14.70;;;16.50;99.90;;;;;;5094356;28;21006;-70
2022/09/28 12:29:40;;;;;;;15.90;14.90;;;16.80;99.90;;;;;;5090520;28;20660;-70
2022/09/28 12:32:14;;;;;;;15.53;14.83;;;16.90;99.90;;;;;;5085651;28;20465;-69
2022/09/28 12:34:41;;;;;;;16.50;15.50;;;16.50;99.90;;;;;;5094675;28;20484;-69
2022/09/28 12:37:26;;;;;;;15.73;14.80;;;16.00;99.90;;;;;;5095539;28;20877;-69
2022/09/28 12:40:21;;;;;;;16.40;15.50;;;16.00;99.90;;;;;;5090365;28;20748;-69
2022/09/28 12:43:03;;;;;;;15.30;14.60;;;16.10;99.90;;;;;;5093830;28;20871;-69
2022/09/28 12:45:54;;;;;;;15.97;14.87;;;16.10;99.90;;;;;;5097741;28;20482;-69
2022/09/28 12:48:35;;;;;;;15.70;14.67;;;16.00;99.90;;;;;;5098899;28;20942;-68
2022/09/28 12:51:14;;;;;;;15.60;14.70;;;15.90;99.90;;;;;;5093354;28;20579;-68
2022/09/28 12:54:01;;;;;;;21.00;19.60;;;15.80;99.90;;;;;;5096104;28;20960;-68
2022/09/28 12:56:38;;;;;;;22.97;21.27;;;15.30;99.90;;;;;;5096048;28;20562;-67
2022/09/28 12:59:17;;;;;;;23.87;21.80;;;14.70;99.90;;;;;;5092741;28;20934;-68